createdAt,value
2019-03-01T00:04:03.899Z,44.57
2019-03-01T00:09:40.281Z,44.83
2019-03-01T00:15:04.876Z,44.83
2019-03-01T00:20:43.978Z,44.42
2019-03-01T00:26:13.225Z,44.46
2019-03-01T00:32:16.627Z,44.90
2019-03-01T00:38:17.365Z,44.90
2019-03-01T00:44:13.555Z,45.13
2019-03-01T00:49:17.429Z,44.96
2019-03-01T00:54:21.231Z,44.96
2019-03-01T00:59:25.097Z,44.04
2019-03-01T01:04:28.911Z,44.04
2019-03-01T01:09:33.949Z,45.38
2019-03-01T01:14:37.740Z,45.05
2019-03-01T01:19:41.525Z,44.95
2019-03-01T01:24:45.312Z,45.11
2019-03-01T01:29:49.078Z,45.36
2019-03-01T01:34:52.850Z,45.43
2019-03-01T01:39:56.681Z,45.05
2019-03-01T01:45:00.447Z,45.97
2019-03-01T01:50:05.037Z,45.52
2019-03-01T01:55:08.817Z,45.37
2019-03-01T02:00:12.775Z,45.88
2019-03-01T02:05:16.689Z,46.33
2019-03-01T02:10:20.575Z,46.11
2019-03-01T02:15:24.373Z,46.11
2019-03-01T02:20:28.228Z,45.73
2019-03-01T02:25:32.226Z,45.69
2019-03-01T02:30:36.102Z,46.29
2019-03-01T02:35:39.871Z,45.68
2019-03-01T02:40:43.640Z,45.68
2019-03-01T02:45:47.492Z,46.22
2019-03-01T02:50:51.267Z,46.14
2019-03-01T02:55:55.046Z,46.48
2019-03-01T03:00:58.804Z,46.72
2019-03-01T03:06:20.505Z,46.08
2019-03-01T03:11:24.272Z,45.98
2019-03-01T03:16:28.723Z,45.89
2019-03-01T03:21:32.482Z,46.03
2019-03-01T03:26:36.359Z,46.03
2019-03-01T03:31:40.135Z,46.08
2019-03-01T03:36:43.896Z,46.08
2019-03-01T03:41:47.681Z,46.54
2019-03-01T03:46:51.581Z,46.44
2019-03-01T03:51:55.350Z,46.44
2019-03-01T03:56:59.159Z,46.17
2019-03-01T04:02:03.061Z,46.46
2019-03-01T04:07:06.892Z,46.04
2019-03-01T04:12:10.655Z,46.35
2019-03-01T04:17:14.559Z,46.45
2019-03-01T04:22:18.363Z,46.80
2019-03-01T04:27:22.122Z,46.80
2019-03-01T04:32:25.954Z,46.61
2019-03-01T04:37:30.273Z,46.64
2019-03-01T04:42:34.066Z,47.02
2019-03-01T04:47:37.805Z,47.02
2019-03-01T04:52:41.668Z,46.09
2019-03-01T04:57:45.423Z,46.09
2019-03-01T05:02:49.165Z,45.67
2019-03-01T05:07:52.905Z,45.69
2019-03-01T05:12:57.797Z,45.83
2019-03-01T05:18:01.550Z,45.83
2019-03-01T05:23:05.303Z,46.00
2019-03-01T05:28:09.048Z,46.00
2019-03-01T05:33:12.811Z,46.21
2019-03-01T05:38:21.819Z,45.86
2019-03-01T05:43:22.048Z,45.96
2019-03-01T05:48:25.787Z,45.88
2019-03-01T05:53:29.553Z,45.88
2019-03-01T05:58:38.493Z,46.05
2019-03-01T06:04:15.564Z,46.01
2019-03-01T06:09:42.147Z,46.43
2019-03-01T06:15:14.395Z,46.43
2019-03-01T06:20:41.174Z,46.20
2019-03-01T06:26:10.574Z,46.11
2019-03-01T06:31:59.907Z,45.95
2019-03-01T06:37:20.609Z,46.41
2019-03-01T06:43:11.432Z,46.60
2019-03-01T06:48:24.904Z,46.74
2019-03-01T06:53:28.672Z,46.77
2019-03-01T06:58:40.927Z,46.42
2019-03-01T07:03:47.199Z,46.82
2019-03-01T07:08:50.976Z,46.55
2019-03-01T07:13:54.740Z,46.74
2019-03-01T07:18:58.521Z,46.74
2019-03-01T07:24:02.280Z,46.91
2019-03-01T07:29:06.447Z,46.91
2019-03-01T07:34:10.202Z,47.09
2019-03-01T07:39:13.964Z,47.37
2019-03-01T07:44:17.809Z,46.96
2019-03-01T07:49:21.555Z,46.94
2019-03-01T07:54:25.371Z,50.00
2019-03-01T07:59:33.459Z,50.26
2019-03-01T08:04:34.915Z,48.66
2019-03-01T08:09:41.283Z,48.66
2019-03-01T08:14:44.157Z,42.79
2019-03-01T08:19:47.929Z,41.47
2019-03-01T08:24:51.683Z,41.34
2019-03-01T08:29:55.442Z,42.05
2019-03-01T08:34:59.213Z,42.58
2019-03-01T08:40:03.144Z,42.59
2019-03-01T08:45:07.580Z,42.59
2019-03-01T08:50:13.410Z,42.71
2019-03-01T08:55:18.160Z,42.73
2019-03-01T09:00:26.977Z,42.73
2019-03-01T09:05:29.727Z,42.97
2019-03-01T09:10:33.667Z,43.06
2019-03-01T09:15:37.619Z,43.06
2019-03-01T09:20:41.365Z,43.84
2019-03-01T09:25:45.364Z,43.49
2019-03-01T09:30:49.150Z,43.49
2019-03-01T09:35:57.323Z,43.48
2019-03-01T09:41:04.097Z,43.46
2019-03-01T09:46:06.548Z,43.46
2019-03-01T09:51:11.404Z,43.76
2019-03-01T09:56:15.338Z,43.90
2019-03-01T10:01:19.947Z,43.87
2019-03-01T10:06:23.702Z,43.95
2019-03-01T10:11:27.464Z,44.00
2019-03-01T10:16:31.223Z,44.05
2019-03-01T10:21:34.966Z,44.05
2019-03-01T10:26:38.735Z,44.07
2019-03-01T10:31:42.490Z,44.22
2019-03-01T10:36:46.241Z,44.42
2019-03-01T10:41:49.980Z,44.25
2019-03-01T10:46:53.725Z,44.36
2019-03-01T10:51:57.493Z,44.18
2019-03-01T10:57:01.336Z,44.18
2019-03-01T11:02:05.164Z,44.50
2019-03-01T11:07:08.932Z,44.50
2019-03-01T11:12:12.685Z,44.42
2019-03-01T11:17:16.438Z,44.46
2019-03-01T11:22:20.243Z,44.19
2019-03-01T11:27:24.089Z,44.97
2019-03-01T11:32:27.867Z,44.97
2019-03-01T11:37:31.625Z,44.55
2019-03-01T11:42:35.380Z,44.23
2019-03-01T11:47:39.851Z,44.13
2019-03-01T11:52:43.640Z,44.30
2019-03-01T11:57:47.392Z,44.54
2019-03-01T12:02:51.516Z,44.76
2019-03-01T12:07:55.326Z,45.12
2019-03-01T12:12:59.106Z,45.12
2019-03-01T12:18:03.112Z,46.21
2019-03-01T12:23:06.854Z,46.39
2019-03-01T12:28:10.616Z,47.08
2019-03-01T12:33:14.400Z,47.08
2019-03-01T12:38:18.150Z,45.61
2019-03-01T12:43:21.909Z,45.31
2019-03-01T12:48:25.670Z,45.50
2019-03-01T12:53:29.430Z,44.88
2019-03-01T12:58:33.191Z,45.29
2019-03-01T13:03:36.931Z,44.68
2019-03-01T13:08:40.690Z,44.54
2019-03-01T13:13:44.473Z,44.42
2019-03-01T13:18:51.308Z,44.31
2019-03-01T13:23:55.739Z,44.33
2019-03-01T13:28:59.506Z,44.33
2019-03-01T13:34:03.341Z,43.94
2019-03-01T13:39:10.451Z,43.91
2019-03-01T13:44:13.506Z,44.15
2019-03-01T13:49:17.282Z,44.61
2019-03-01T13:54:21.495Z,44.44
2019-03-01T13:59:25.322Z,43.68
2019-03-01T14:04:29.171Z,44.06
2019-03-01T14:09:34.419Z,43.96
2019-03-01T14:14:38.322Z,43.95
2019-03-01T14:19:43.068Z,44.36
2019-03-01T14:24:46.921Z,44.41
2019-03-01T14:29:53.597Z,44.47
2019-03-01T14:34:56.210Z,44.47
2019-03-01T14:39:59.976Z,44.66
2019-03-01T14:45:06.615Z,44.71
2019-03-01T14:50:11.289Z,44.73
2019-03-01T14:55:19.711Z,44.40
2019-03-01T15:00:53.685Z,44.79
2019-03-01T15:05:57.710Z,44.61
2019-03-01T15:11:07.972Z,44.87
2019-03-01T15:16:12.994Z,44.67
2019-03-01T15:21:17.042Z,45.19
2019-03-01T15:26:23.108Z,45.19
2019-03-01T15:31:26.312Z,45.20
2019-03-01T15:36:30.169Z,44.88
2019-03-01T15:41:35.128Z,45.04
2019-03-01T15:46:38.905Z,45.04
2019-03-01T15:51:45.242Z,45.53
2019-03-01T15:56:49.042Z,45.49
2019-03-01T16:01:52.914Z,45.47
2019-03-01T16:06:56.814Z,45.55
2019-03-01T16:12:00.595Z,45.82
2019-03-01T16:17:04.568Z,45.56
2019-03-01T16:22:08.420Z,46.02
2019-03-01T16:27:15.167Z,45.34
2019-03-01T16:32:17.781Z,45.34
2019-03-01T16:37:22.686Z,45.62
2019-03-01T16:42:27.124Z,45.62
2019-03-01T16:47:30.917Z,45.76
2019-03-01T16:52:34.699Z,45.91
2019-03-01T16:57:38.541Z,46.07
2019-03-01T17:02:43.177Z,46.07
2019-03-01T17:07:47.010Z,45.82
2019-03-01T17:12:52.025Z,46.28
2019-03-01T17:17:56.311Z,46.77
2019-03-01T17:23:03.117Z,47.73
2019-03-01T17:28:05.752Z,45.93
2019-03-01T17:33:12.513Z,44.35
2019-03-01T17:38:15.150Z,44.35
2019-03-01T17:43:19.402Z,44.52
2019-03-01T17:48:23.179Z,43.88
2019-03-01T17:53:26.952Z,43.47
2019-03-01T17:58:30.769Z,42.51
2019-03-01T18:03:34.527Z,43.51
2019-03-01T18:08:39.699Z,43.59
2019-03-01T18:13:43.930Z,43.59
2019-03-01T18:18:49.413Z,43.70
2019-03-01T18:23:53.290Z,43.17
2019-03-01T18:28:57.037Z,43.32
2019-03-01T18:34:00.865Z,43.66
2019-03-01T18:39:10.221Z,43.35
2019-03-01T18:44:14.075Z,43.73
2019-03-01T18:49:19.751Z,43.47
2019-03-01T18:54:23.439Z,43.03
2019-03-01T18:59:27.180Z,42.95
2019-03-01T19:04:30.991Z,43.02
2019-03-01T19:09:36.261Z,43.16
2019-03-01T19:14:40.260Z,43.16
2019-03-01T19:19:44.294Z,43.07
2019-03-01T19:24:50.074Z,43.20
2019-03-01T19:29:53.586Z,42.90
2019-03-01T19:34:58.990Z,43.19
2019-03-01T19:40:03.006Z,42.91
2019-03-01T19:45:07.485Z,42.96
2019-03-01T19:50:13.284Z,42.55
2019-03-01T19:55:17.133Z,42.86
2019-03-01T20:00:22.231Z,42.86
2019-03-01T20:05:27.904Z,42.88
2019-03-01T20:10:32.143Z,42.99
2019-03-01T20:15:35.978Z,41.75
2019-03-01T20:20:39.936Z,41.75
2019-03-01T20:25:43.710Z,41.49
2019-03-01T20:30:47.479Z,41.85
2019-03-01T20:35:51.259Z,42.41
2019-03-01T20:40:55.019Z,42.21
2019-03-01T20:45:58.787Z,42.19
2019-03-01T20:51:02.590Z,42.36
2019-03-01T20:56:06.447Z,42.15
2019-03-01T21:01:10.275Z,41.86
2019-03-01T21:06:14.076Z,42.11
2019-03-01T21:11:17.870Z,43.33
2019-03-01T21:16:21.633Z,43.24
2019-03-01T21:21:25.580Z,43.64
2019-03-01T21:26:30.891Z,43.55
2019-03-01T21:31:35.406Z,43.55
2019-03-01T21:36:40.306Z,43.93
2019-03-01T21:41:44.753Z,44.13
2019-03-01T21:46:49.386Z,43.85
2019-03-01T21:51:55.214Z,43.67
2019-03-01T21:56:58.634Z,44.61
2019-03-01T22:02:02.426Z,44.07
2019-03-01T22:07:06.329Z,44.07
2019-03-01T22:12:10.105Z,44.41
2019-03-01T22:17:14.442Z,44.38
2019-03-01T22:22:18.332Z,44.38
2019-03-01T22:27:25.324Z,44.79
2019-03-01T22:32:29.051Z,44.79
2019-03-01T22:37:32.881Z,44.85
2019-03-01T22:42:36.651Z,44.76
2019-03-01T22:47:40.417Z,44.46
2019-03-01T22:52:44.305Z,45.37
2019-03-01T22:57:48.093Z,45.38
2019-03-01T23:02:51.851Z,45.38
2019-03-01T23:07:56.805Z,45.14
2019-03-01T23:13:01.179Z,45.20
2019-03-01T23:18:05.691Z,44.90
2019-03-01T23:23:10.370Z,44.97
2019-03-01T23:28:14.264Z,45.12
2019-03-01T23:33:18.009Z,45.05
2019-03-01T23:38:21.797Z,45.40
2019-03-01T23:43:27.543Z,45.45
2019-03-01T23:48:31.140Z,45.36
2019-03-01T23:53:34.941Z,45.86
2019-03-01T23:58:38.761Z,44.80
